ADDS METAR Data INFO
IDs: Format: Raw Decoded Include TAF

Data at: 0104 UTC 24 Jun 2018

PAMK 222056Z AUTO 20015KT 10SM BKN041 OVC049 13/04 A2995 RMK AO2 SLP146 T01330039 51010 $
PAMK 221956Z AUTO 17013G18KT 10SM BKN040 12/04 A2995 RMK AO2 SLP145 T01220044 $
PAMK 221856Z AUTO 18008KT 10SM FEW032 12/05 A2993 RMK AO2 SLP140 T01170050 $
PAMK 221756Z AUTO 21011KT 10SM SCT070 BKN085 12/06 A2992 RMK AO2 SLP135 T01170056 10117 20083 53018 $
PAMK 221656Z AUTO 21010KT 10SM OVC075 10/07 A2990 RMK AO2 SLP129 T01000067 $
PAMK 221556Z AUTO 20012KT 10SM FEW050 OVC080 09/07 A2988 RMK AO2 SLP123 T00940067 $
PAMK 221456Z AUTO 19010KT 10SM SCT026 BKN040 OVC090 09/07 A2987 RMK AO2 SLP118 T00940072 51012 $
PAMK 221426Z AUTO 20010KT 10SM BKN023 OVC029 09/07 A2986 RMK AO2 $
PAMK 221356Z AUTO 21009KT 10SM SCT019 OVC033 09/08 A2986 RMK AO2 SLP114 T00940078 $
PAMK 221348Z AUTO 21009KT 10SM SCT017 OVC031 09/08 A2985 RMK AO2 $
PAMK 221333Z AUTO 20007KT 10SM BKN017 BKN040 09/08 A2985 RMK AO2 $